createdAt,value
2022-11-20T00:01:29.423Z,-2.09
2022-11-20T00:03:59.004Z,-2.10
2022-11-20T00:06:28.388Z,-2.07
2022-11-20T00:08:59.147Z,-2.09
2022-11-20T00:11:28.308Z,-2.11
2022-11-20T00:13:58.647Z,-2.16
2022-11-20T00:16:28.763Z,-2.18
2022-11-20T00:18:56.341Z,-2.18
2022-11-20T00:21:26.711Z,-2.18
2022-11-20T00:23:56.609Z,-2.22
2022-11-20T00:26:26.492Z,-2.24
2022-11-20T00:28:59.519Z,-2.26
2022-11-20T00:31:27.444Z,-2.26
2022-11-20T00:33:54.958Z,-2.29
2022-11-20T00:36:28.913Z,-2.29
2022-11-20T00:38:58.791Z,-2.34
2022-11-20T00:41:30.068Z,-2.37
2022-11-20T00:43:58.213Z,-2.39
2022-11-20T00:46:28.428Z,-2.41
2022-11-20T00:48:56.278Z,-2.42
2022-11-20T00:51:26.900Z,-2.41
2022-11-20T00:53:58.354Z,-2.44
2022-11-20T00:56:25.478Z,-2.48
2022-11-20T00:58:52.701Z,-2.54
2022-11-20T01:01:26.989Z,-2.59
2022-11-20T01:03:56.873Z,-2.61
2022-11-20T01:06:36.862Z,-2.56
2022-11-20T01:09:11.408Z,-2.55
2022-11-20T01:11:42.596Z,-2.53
2022-11-20T01:14:16.806Z,-2.58
2022-11-20T01:16:49.957Z,-2.59
2022-11-20T01:19:22.367Z,-2.59
2022-11-20T01:21:53.766Z,-2.60
2022-11-20T01:24:23.047Z,-2.61
2022-11-20T01:26:52.320Z,-2.62
2022-11-20T01:29:25.594Z,-2.59
2022-11-20T01:31:53.703Z,-2.66
2022-11-20T01:34:23.471Z,-2.67
2022-11-20T01:36:51.722Z,-2.73
2022-11-20T01:39:26.085Z,-2.75
2022-11-20T01:42:30.728Z,-2.77
2022-11-20T01:45:02.201Z,-2.79
2022-11-20T01:47:45.957Z,-2.80
2022-11-20T01:50:20.577Z,-2.85
2022-11-20T01:52:57.009Z,-2.88
2022-11-20T01:55:31.801Z,-2.86
2022-11-20T01:58:00.549Z,-2.87
2022-11-20T02:00:31.160Z,-2.91
2022-11-20T02:03:04.606Z,-2.93
2022-11-20T02:05:58.515Z,-2.94
2022-11-20T02:08:25.848Z,-2.93
2022-11-20T02:10:53.484Z,-2.93
2022-11-20T02:13:39.482Z,-2.94
2022-11-20T02:16:25.408Z,-3.01
2022-11-20T02:18:55.775Z,-3.05
2022-11-20T02:22:04.387Z,-3.04
2022-11-20T02:24:32.308Z,-3.08
2022-11-20T02:27:13.815Z,-3.10
2022-11-20T02:30:03.069Z,-3.15
2022-11-20T02:32:34.540Z,-3.16
2022-11-20T02:35:20.569Z,-3.19
2022-11-20T02:37:51.940Z,-3.20
2022-11-20T02:40:19.020Z,-3.22
2022-11-20T02:42:46.362Z,-3.23
2022-11-20T02:45:13.377Z,-3.27
2022-11-20T02:47:40.688Z,-3.30
2022-11-20T02:50:08.215Z,-3.29
2022-11-20T02:52:35.433Z,-3.32
2022-11-20T02:55:02.811Z,-3.30
2022-11-20T02:57:30.099Z,-3.33
2022-11-20T02:59:57.076Z,-3.36
2022-11-20T03:02:24.251Z,-3.36
2022-11-20T03:04:51.388Z,-3.34
2022-11-20T03:07:18.716Z,-3.34
2022-11-20T03:09:45.737Z,-3.33
2022-11-20T03:12:12.952Z,-3.37
2022-11-20T03:14:39.967Z,-3.40
2022-11-20T03:17:07.277Z,-3.37
2022-11-20T03:19:35.175Z,-3.40
2022-11-20T03:22:02.496Z,-3.45
2022-11-20T03:24:29.472Z,-3.44
2022-11-20T03:26:56.728Z,-3.42
2022-11-20T03:29:23.910Z,-3.41
2022-11-20T03:31:51.107Z,-3.42
2022-11-20T03:34:18.150Z,-3.43
2022-11-20T03:36:45.803Z,-3.41
2022-11-20T03:39:12.905Z,-3.46
2022-11-20T03:41:43.062Z,-3.47
2022-11-20T03:44:12.636Z,-3.46
2022-11-20T03:46:40.249Z,-3.48
2022-11-20T03:49:07.710Z,-3.47
2022-11-20T03:51:36.860Z,-3.47
2022-11-20T03:54:09.621Z,-3.50
2022-11-20T03:56:39.295Z,-3.48
2022-11-20T03:59:07.030Z,-3.44
2022-11-20T04:01:38.280Z,-3.47
2022-11-20T04:04:06.278Z,-3.47
2022-11-20T04:06:38.729Z,-3.45
2022-11-20T04:09:07.009Z,-3.46
2022-11-20T04:11:37.551Z,-3.47
2022-11-20T04:14:12.822Z,-3.44
2022-11-20T04:16:40.104Z,-3.44
2022-11-20T04:19:12.737Z,-3.42
2022-11-20T04:21:40.126Z,-3.45
2022-11-20T04:24:08.225Z,-3.47
2022-11-20T04:26:35.892Z,-3.49
2022-11-20T04:29:03.487Z,-3.48
2022-11-20T04:31:34.501Z,-3.41
2022-11-20T04:34:07.916Z,-3.39
2022-11-20T04:36:36.020Z,-3.39
2022-11-20T04:39:07.414Z,-3.40
2022-11-20T04:41:37.205Z,-3.43
2022-11-20T04:44:06.892Z,-3.38
2022-11-20T04:46:43.538Z,-3.40
2022-11-20T04:49:12.652Z,-3.39
2022-11-20T04:51:39.911Z,-3.39
2022-11-20T04:54:06.881Z,-3.37
2022-11-20T04:56:34.225Z,-3.34
2022-11-20T04:59:02.625Z,-3.36
2022-11-20T05:01:30.366Z,-3.33
2022-11-20T05:03:57.435Z,-3.36
2022-11-20T05:06:24.749Z,-3.33
2022-11-20T05:08:52.140Z,-3.34
2022-11-20T05:11:22.004Z,-3.36
2022-11-20T05:13:50.628Z,-3.32
2022-11-20T05:16:24.511Z,-3.32
2022-11-20T05:18:55.156Z,-3.34
2022-11-20T05:21:23.361Z,-3.39
2022-11-20T05:23:50.403Z,-3.40
2022-11-20T05:26:22.544Z,-3.40
2022-11-20T05:28:51.243Z,-3.40
2022-11-20T05:31:28.188Z,-3.39
2022-11-20T05:33:57.940Z,-3.42
2022-11-20T05:36:25.551Z,-3.45
2022-11-20T05:38:56.719Z,-3.48
2022-11-20T05:41:26.221Z,-3.46
2022-11-20T05:43:53.190Z,-3.43
2022-11-20T05:46:27.673Z,-3.43
2022-11-20T05:48:56.462Z,-3.35
2022-11-20T05:51:24.442Z,-3.37
2022-11-20T05:53:51.382Z,-3.37
2022-11-20T05:56:22.859Z,-3.40
2022-11-20T05:58:50.787Z,-3.42
2022-11-20T06:01:26.930Z,-3.38
2022-11-20T06:03:55.213Z,-3.42
2022-11-20T06:06:23.241Z,-3.42
2022-11-20T06:08:50.485Z,-3.41
2022-11-20T06:11:18.688Z,-3.38
2022-11-20T06:13:46.890Z,-3.33
2022-11-20T06:16:19.504Z,-3.38
2022-11-20T06:18:47.444Z,-3.42
2022-11-20T06:21:18.350Z,-3.45
2022-11-20T06:23:46.452Z,-3.39
2022-11-20T06:26:20.360Z,-3.37
2022-11-20T06:28:48.073Z,-3.32
2022-11-20T06:31:20.356Z,-3.31
2022-11-20T06:33:47.877Z,-3.36
2022-11-20T06:36:18.065Z,-3.41
2022-11-20T06:38:45.568Z,-3.37
2022-11-20T06:41:17.863Z,-3.37
2022-11-20T06:43:44.958Z,-3.38
2022-11-20T06:46:14.587Z,-3.37
2022-11-20T06:48:41.768Z,-3.37
2022-11-20T06:51:09.847Z,-3.36
2022-11-20T06:53:38.293Z,-3.39
2022-11-20T06:56:07.204Z,-3.41
2022-11-20T06:58:36.974Z,-3.41
2022-11-20T07:01:13.445Z,-3.40
2022-11-20T07:03:41.509Z,-3.40
2022-11-20T07:06:09.783Z,-3.39
2022-11-20T07:08:37.327Z,-3.37
2022-11-20T07:11:07.749Z,-3.34
2022-11-20T07:13:35.378Z,-3.33
2022-11-20T07:16:06.624Z,-3.32
2022-11-20T07:18:34.109Z,-3.32
2022-11-20T07:21:03.852Z,-3.30
2022-11-20T07:23:30.882Z,-3.27
2022-11-20T07:25:58.368Z,-3.23
2022-11-20T07:28:25.427Z,-3.22
2022-11-20T07:30:54.473Z,-3.20
2022-11-20T07:33:21.912Z,-3.18
2022-11-20T07:35:49.094Z,-3.16
2022-11-20T07:38:16.256Z,-3.11
2022-11-20T07:40:43.786Z,-3.06
2022-11-20T07:43:11.130Z,-3.07
2022-11-20T07:45:38.493Z,-3.08
2022-11-20T07:48:05.761Z,-3.06
2022-11-20T07:50:33.004Z,-3.04
2022-11-20T07:53:07.165Z,-3.00
2022-11-20T07:55:34.635Z,-2.99
2022-11-20T07:58:02.364Z,-2.95
2022-11-20T08:00:29.740Z,-2.93
2022-11-20T08:02:57.190Z,-2.94
2022-11-20T08:05:24.636Z,-2.93
2022-11-20T08:07:51.647Z,-2.93
2022-11-20T08:10:19.253Z,-2.96
2022-11-20T08:13:11.060Z,-2.99
2022-11-20T08:15:40.745Z,-3.00
2022-11-20T08:21:06.390Z,-3.01
2022-11-20T08:23:33.701Z,-3.00
2022-11-20T08:26:00.941Z,-3.04
2022-11-20T08:28:27.936Z,-3.05
2022-11-20T08:31:01.328Z,-2.98
2022-11-20T08:33:28.863Z,-2.91
2022-11-20T08:36:01.880Z,-2.87
2022-11-20T08:38:29.953Z,-2.80
2022-11-20T08:41:21.375Z,-2.75
2022-11-20T08:43:48.813Z,-2.68
2022-11-20T08:46:16.195Z,-2.59
2022-11-20T08:48:44.342Z,-2.55
2022-11-20T08:51:12.898Z,-2.52
2022-11-20T08:53:41.237Z,-2.48
2022-11-20T08:56:08.771Z,-2.46
2022-11-20T08:58:55.086Z,-2.36
2022-11-20T09:01:24.382Z,-2.29
2022-11-20T09:03:51.488Z,-2.22
2022-11-20T09:06:19.377Z,-2.19
2022-11-20T09:08:46.358Z,-2.13
2022-11-20T09:11:13.602Z,-2.08
2022-11-20T09:13:40.571Z,-2.03
2022-11-20T09:16:09.824Z,-2.00
2022-11-20T09:18:38.289Z,-1.95
2022-11-20T09:21:13.791Z,-1.90
2022-11-20T09:23:41.101Z,-1.87
2022-11-20T09:26:14.962Z,-1.84
2022-11-20T09:28:42.167Z,-1.77
2022-11-20T09:31:24.696Z,-1.72
2022-11-20T09:33:51.853Z,-1.68
2022-11-20T09:36:19.653Z,-1.65
2022-11-20T09:38:47.760Z,-1.62
2022-11-20T09:42:14.392Z,-1.58
2022-11-20T09:45:01.705Z,-1.52
2022-11-20T09:48:06.826Z,-1.48
2022-11-20T09:50:37.308Z,-1.41
2022-11-20T09:53:24.848Z,-1.43
2022-11-20T09:55:52.361Z,-1.39
2022-11-20T09:58:54.702Z,-1.35
2022-11-20T10:01:30.304Z,-1.29
2022-11-20T10:04:03.939Z,-1.24
2022-11-20T10:06:59.400Z,-1.19
2022-11-20T10:09:43.812Z,-1.11
2022-11-20T10:12:20.144Z,-1.07
2022-11-20T10:15:24.725Z,-1.04
2022-11-20T10:18:09.769Z,-1.04
2022-11-20T10:21:14.397Z,-1.02
2022-11-20T10:23:53.408Z,-0.94
2022-11-20T10:26:43.792Z,-0.91
2022-11-20T10:29:20.913Z,-0.88
2022-11-20T10:32:01.356Z,-0.85
2022-11-20T10:34:39.160Z,-0.81
2022-11-20T10:37:18.919Z,-0.75
2022-11-20T10:40:12.539Z,-0.74
2022-11-20T10:42:55.876Z,-0.72
2022-11-20T10:46:07.793Z,-0.64
2022-11-20T10:48:37.169Z,-0.60
2022-11-20T10:51:38.444Z,-0.58
2022-11-20T10:54:30.355Z,-0.56
2022-11-20T10:57:51.301Z,-0.49
2022-11-20T11:00:19.042Z,-0.47
2022-11-20T11:02:52.671Z,-0.46
2022-11-20T11:06:09.759Z,-0.41
2022-11-20T11:08:40.560Z,-0.39
2022-11-20T11:11:28.616Z,-0.36
2022-11-20T11:14:07.765Z,-0.32
2022-11-20T11:16:35.802Z,-0.29
2022-11-20T11:19:14.658Z,-0.26
2022-11-20T11:21:57.825Z,-0.25
2022-11-20T11:24:41.728Z,-0.24
2022-11-20T11:27:18.861Z,-0.18
2022-11-20T11:29:48.043Z,-0.14
2022-11-20T11:32:19.386Z,-0.12
2022-11-20T11:34:46.420Z,-0.11
2022-11-20T11:37:24.929Z,-0.11
2022-11-20T11:40:22.444Z,-0.07
2022-11-20T11:42:47.665Z,-0.03
2022-11-20T11:45:18.351Z,0.00
2022-11-20T11:47:49.525Z,0.03
2022-11-20T11:50:25.236Z,0.04
2022-11-20T11:53:00.451Z,0.03
2022-11-20T11:56:01.371Z,0.08
2022-11-20T11:58:53.178Z,0.12
2022-11-20T12:01:39.360Z,0.14
2022-11-20T12:04:45.546Z,0.14
2022-11-20T12:07:46.675Z,0.18
2022-11-20T12:10:45.481Z,0.19
2022-11-20T12:13:34.648Z,0.21
2022-11-20T12:16:04.859Z,0.25
2022-11-20T12:18:32.678Z,0.26
2022-11-20T12:21:21.222Z,0.28
2022-11-20T12:24:02.324Z,0.29
2022-11-20T12:26:44.462Z,0.34
2022-11-20T12:29:14.380Z,0.34
2022-11-20T12:32:05.533Z,0.37
2022-11-20T12:34:41.973Z,0.40
2022-11-20T12:37:21.781Z,0.42
2022-11-20T12:39:53.736Z,0.44
2022-11-20T12:43:06.148Z,0.46
2022-11-20T12:46:15.000Z,0.48
2022-11-20T12:49:21.895Z,0.50
2022-11-20T12:52:25.838Z,0.55
2022-11-20T12:55:22.491Z,0.57
2022-11-20T12:58:24.092Z,0.55
2022-11-20T13:01:09.543Z,0.55
2022-11-20T13:03:53.171Z,0.59
2022-11-20T13:06:20.687Z,0.62
2022-11-20T13:08:57.237Z,0.67
2022-11-20T13:11:49.384Z,0.65
2022-11-20T13:14:42.551Z,0.64
2022-11-20T13:17:33.391Z,0.67
2022-11-20T13:20:01.097Z,0.66
2022-11-20T13:22:31.024Z,0.64
2022-11-20T13:24:58.202Z,0.65
2022-11-20T13:27:25.766Z,0.64
2022-11-20T13:30:18.272Z,0.67
2022-11-20T13:32:57.340Z,0.72
2022-11-20T13:35:37.435Z,0.73
2022-11-20T13:38:12.995Z,0.71
2022-11-20T13:40:57.545Z,0.71
2022-11-20T13:43:41.595Z,0.73
2022-11-20T13:46:11.154Z,0.71
2022-11-20T13:48:44.847Z,0.72
2022-11-20T13:51:43.339Z,0.72
2022-11-20T13:55:00.156Z,0.74
2022-11-20T13:57:56.078Z,0.78
2022-11-20T14:00:26.208Z,0.77
2022-11-20T14:03:16.455Z,0.76
2022-11-20T14:06:01.651Z,0.74
2022-11-20T14:08:40.576Z,0.77
2022-11-20T14:11:16.037Z,0.76
2022-11-20T14:14:16.716Z,0.78
2022-11-20T14:16:45.296Z,0.77
2022-11-20T14:19:21.272Z,0.78
2022-11-20T14:22:18.149Z,0.79
2022-11-20T14:24:45.640Z,0.80
2022-11-20T14:27:21.429Z,0.77
2022-11-20T14:29:51.360Z,0.79
2022-11-20T14:32:23.194Z,0.76
2022-11-20T14:34:51.909Z,0.78
2022-11-20T14:37:34.252Z,0.78
2022-11-20T14:40:01.827Z,0.75
2022-11-20T14:42:31.933Z,0.74
2022-11-20T14:45:00.775Z,0.73
2022-11-20T14:47:32.024Z,0.73
2022-11-20T14:50:04.696Z,0.74
2022-11-20T14:52:35.988Z,0.73
2022-11-20T14:55:03.118Z,0.71
2022-11-20T14:57:34.017Z,0.73
2022-11-20T15:00:22.279Z,0.74
2022-11-20T15:02:52.448Z,0.74
2022-11-20T15:05:24.981Z,0.72
2022-11-20T15:08:08.224Z,0.72
2022-11-20T15:10:36.098Z,0.73
2022-11-20T15:13:27.428Z,0.72
2022-11-20T15:16:01.143Z,0.72
2022-11-20T15:18:33.945Z,0.70
2022-11-20T15:21:12.040Z,0.66
2022-11-20T15:23:39.572Z,0.69
2022-11-20T15:26:18.423Z,0.71
2022-11-20T15:28:50.876Z,0.71
2022-11-20T15:31:23.104Z,0.71
2022-11-20T15:33:50.599Z,0.69
2022-11-20T15:36:17.794Z,0.66
2022-11-20T15:38:45.250Z,0.65
2022-11-20T15:41:12.358Z,0.64
2022-11-20T15:43:39.687Z,0.66
2022-11-20T15:46:14.932Z,0.70
2022-11-20T15:48:52.225Z,0.68
2022-11-20T15:51:30.010Z,0.67
2022-11-20T15:53:58.158Z,0.65
2022-11-20T15:56:25.994Z,0.62
2022-11-20T15:58:53.965Z,0.63
2022-11-20T16:01:23.233Z,0.66
2022-11-20T16:03:50.639Z,0.70
2022-11-20T16:06:17.681Z,0.68
2022-11-20T16:08:45.126Z,0.68
2022-11-20T16:11:16.378Z,0.67
2022-11-20T16:14:02.942Z,0.69
2022-11-20T16:16:34.516Z,0.66
2022-11-20T16:19:02.561Z,0.68
2022-11-20T16:21:33.221Z,0.69
2022-11-20T16:24:07.412Z,0.69
2022-11-20T16:26:34.984Z,0.71
2022-11-20T16:29:04.736Z,0.75
2022-11-20T16:31:33.061Z,0.72
2022-11-20T16:34:10.158Z,0.77
2022-11-20T16:36:42.905Z,0.76
2022-11-20T16:39:10.814Z,0.77
2022-11-20T16:41:38.007Z,0.78
2022-11-20T16:44:11.554Z,0.80
2022-11-20T16:46:40.798Z,0.78
2022-11-20T16:49:14.306Z,0.80
2022-11-20T16:51:41.737Z,0.79
2022-11-20T16:54:11.729Z,0.81
2022-11-20T16:56:40.213Z,0.86
2022-11-20T16:59:07.488Z,0.81
2022-11-20T17:01:37.008Z,0.76
2022-11-20T17:04:07.429Z,0.79
2022-11-20T17:06:38.876Z,0.80
2022-11-20T17:09:09.553Z,0.76
2022-11-20T17:11:37.364Z,0.75
2022-11-20T17:14:07.269Z,0.75
2022-11-20T17:16:36.127Z,0.75
2022-11-20T17:19:05.207Z,0.79
2022-11-20T17:21:37.607Z,0.80
2022-11-20T17:24:07.333Z,0.77
2022-11-20T17:26:35.985Z,0.73
2022-11-20T17:29:14.448Z,0.73
2022-11-20T17:31:43.293Z,0.66
2022-11-20T17:34:14.027Z,0.67
2022-11-20T17:36:45.527Z,0.62
2022-11-20T17:39:17.718Z,0.67
2022-11-20T17:41:45.541Z,0.69
2022-11-20T17:44:13.397Z,0.71
2022-11-20T17:46:40.988Z,0.75
2022-11-20T17:49:08.769Z,0.75
2022-11-20T17:51:36.069Z,0.78
2022-11-20T17:54:07.425Z,0.77
2022-11-20T17:56:54.926Z,0.78
2022-11-20T17:59:22.585Z,0.79
2022-11-20T18:01:49.669Z,0.77
2022-11-20T18:04:17.938Z,0.78
2022-11-20T18:06:45.319Z,0.77
2022-11-20T18:09:12.775Z,0.76
2022-11-20T18:11:42.005Z,0.75
2022-11-20T18:14:34.642Z,0.74
2022-11-20T18:17:10.364Z,0.74
2022-11-20T18:19:55.661Z,0.75
2022-11-20T18:22:31.692Z,0.73
2022-11-20T18:24:58.975Z,0.76
2022-11-20T18:27:26.138Z,0.77
2022-11-20T18:29:53.631Z,0.78
2022-11-20T18:32:22.643Z,0.76
2022-11-20T18:34:51.229Z,0.76
2022-11-20T18:37:19.185Z,0.77
2022-11-20T18:39:46.360Z,0.76
2022-11-20T18:42:35.079Z,0.74
2022-11-20T18:45:05.020Z,0.74
2022-11-20T18:47:37.800Z,0.70
2022-11-20T18:50:08.976Z,0.72
2022-11-20T18:52:44.413Z,0.68
2022-11-20T18:55:12.804Z,0.68
2022-11-20T18:57:39.827Z,0.69
2022-11-20T19:00:10.492Z,0.66
2022-11-20T19:02:42.279Z,0.63
2022-11-20T19:05:13.596Z,0.60
2022-11-20T19:07:41.359Z,0.57
2022-11-20T19:10:09.524Z,0.52
2022-11-20T19:12:36.474Z,0.48
2022-11-20T19:15:04.504Z,0.42
2022-11-20T19:17:33.743Z,0.44
2022-11-20T19:20:01.034Z,0.45
2022-11-20T19:22:29.288Z,0.43
2022-11-20T19:24:56.447Z,0.40
2022-11-20T19:27:24.012Z,0.37
2022-11-20T19:29:51.221Z,0.34
2022-11-20T19:32:18.947Z,0.32
2022-11-20T19:34:47.627Z,0.30
2022-11-20T19:37:14.549Z,0.24
2022-11-20T19:39:41.870Z,0.17
2022-11-20T19:42:08.826Z,0.12
2022-11-20T19:44:36.177Z,0.14
2022-11-20T19:47:08.948Z,0.16
2022-11-20T19:49:41.697Z,0.12
2022-11-20T19:52:08.652Z,0.11
2022-11-20T19:54:36.847Z,0.09
2022-11-20T19:57:03.806Z,0.03
2022-11-20T19:59:31.127Z,-0.01
2022-11-20T20:01:58.284Z,0.02
2022-11-20T20:04:25.566Z,-0.01
2022-11-20T20:06:52.628Z,0.02
2022-11-20T20:09:20.672Z,0.00
2022-11-20T20:11:48.133Z,-0.02
2022-11-20T20:14:18.270Z,-0.01
2022-11-20T20:16:45.580Z,-0.04
2022-11-20T20:19:15.426Z,-0.04
2022-11-20T20:21:42.813Z,-0.06
2022-11-20T20:24:11.584Z,-0.08
2022-11-20T20:26:39.120Z,-0.09
2022-11-20T20:29:06.422Z,-0.08
2022-11-20T20:31:34.397Z,-0.09
2022-11-20T20:34:05.507Z,-0.15
2022-11-20T20:36:33.218Z,-0.16
2022-11-20T20:39:02.442Z,-0.13
2022-11-20T20:41:29.517Z,-0.12
2022-11-20T20:44:15.393Z,-0.12
2022-11-20T20:46:43.698Z,-0.09
2022-11-20T20:49:11.219Z,-0.08
2022-11-20T20:51:38.408Z,-0.07
2022-11-20T20:54:05.772Z,-0.08
2022-11-20T20:56:33.104Z,-0.10
2022-11-20T20:59:00.481Z,-0.13
2022-11-20T21:01:30.566Z,-0.14
2022-11-20T21:03:58.608Z,-0.14
2022-11-20T21:06:26.084Z,-0.17
2022-11-20T21:08:54.146Z,-0.17
2022-11-20T21:11:21.176Z,-0.17
2022-11-20T21:13:49.440Z,-0.15
2022-11-20T21:16:20.685Z,-0.11
2022-11-20T21:18:49.194Z,-0.13
2022-11-20T21:21:36.609Z,-0.11
2022-11-20T21:24:04.316Z,-0.09
2022-11-20T21:26:31.365Z,-0.08
2022-11-20T21:28:58.866Z,-0.13
2022-11-20T21:31:26.889Z,-0.14
2022-11-20T21:33:57.005Z,-0.14
2022-11-20T21:36:30.448Z,-0.15
2022-11-20T21:38:59.596Z,-0.14
2022-11-20T21:41:30.386Z,-0.17
2022-11-20T21:46:47.245Z,-0.11
2022-11-20T21:49:15.216Z,-0.09
2022-11-20T21:51:42.194Z,-0.09
2022-11-20T21:54:10.915Z,-0.04
2022-11-20T21:56:38.064Z,-0.05
2022-11-20T21:59:05.292Z,-0.08
2022-11-20T22:01:32.435Z,-0.07
2022-11-20T22:04:02.752Z,0.00
2022-11-20T22:06:33.690Z,-0.01
2022-11-20T22:09:02.603Z,-0.03
2022-11-20T22:11:30.543Z,-0.06
2022-11-20T22:14:16.753Z,-0.05
2022-11-20T22:16:43.828Z,-0.04
2022-11-20T22:19:11.440Z,0.04
2022-11-20T22:21:40.624Z,0.04
2022-11-20T22:24:12.453Z,0.03
2022-11-20T22:26:40.892Z,0.04
2022-11-20T22:29:14.287Z,0.08
2022-11-20T22:31:41.444Z,0.10
2022-11-20T22:34:12.999Z,0.12
2022-11-20T22:36:41.511Z,0.13
2022-11-20T22:39:08.903Z,0.13
2022-11-20T22:41:35.920Z,0.17
2022-11-20T22:44:06.859Z,0.16
2022-11-20T22:46:37.008Z,0.17
2022-11-20T22:49:08.559Z,0.19
2022-11-20T22:51:39.677Z,0.19
2022-11-20T22:54:07.892Z,0.19
2022-11-20T22:56:35.120Z,0.16
2022-11-20T22:59:03.089Z,0.13
2022-11-20T23:01:37.872Z,0.12
2022-11-20T23:04:10.212Z,0.16
2022-11-20T23:06:37.521Z,0.16
2022-11-20T23:09:07.011Z,0.16
2022-11-20T23:11:35.343Z,0.16
2022-11-20T23:14:12.713Z,0.19
2022-11-20T23:16:40.591Z,0.15
2022-11-20T23:19:11.986Z,0.12
2022-11-20T23:21:41.411Z,0.11
2022-11-20T23:24:09.808Z,0.14
2022-11-20T23:26:40.182Z,0.21
2022-11-20T23:29:08.505Z,0.23
2022-11-20T23:31:36.457Z,0.24
2022-11-20T23:34:04.923Z,0.24
2022-11-20T23:36:32.304Z,0.22
2022-11-20T23:38:59.731Z,0.22
2022-11-20T23:41:26.699Z,0.21
2022-11-20T23:43:54.997Z,0.20
2022-11-20T23:46:22.069Z,0.22
2022-11-20T23:48:49.507Z,0.27
2022-11-20T23:51:16.740Z,0.31
2022-11-20T23:53:44.212Z,0.32
2022-11-20T23:56:14.324Z,0.30
2022-11-20T23:58:42.384Z,0.29
